Time;durP1;ratioP1;P1;durP2;ratioP2;P2;SDS_P1;SDS_P2;PMS_P1;PMS_P2;Temp;Humidity;BMP_temperature;BMP_pressure;BME280_temperature;BME280_humidity;BME280_pressure;Samples;Min_cycle;Max_cycle;Signal;HPM_P1;HPM_P2
2024/01/15 00:00:39;;;;;;;12.33;3.17;;;1.90;99.90;;;;;;5032801;28;20049;-73
2024/01/15 00:03:05;;;;;;;10.07;3.13;;;1.90;99.90;;;;;;5035507;28;20097;-74
2024/01/15 00:05:31;;;;;;;12.57;2.70;;;1.90;99.90;;;;;;5034673;28;20088;-73
2024/01/15 00:07:56;;;;;;;14.80;3.17;;;1.90;99.90;;;;;;5038799;28;20099;-73
2024/01/15 00:10:23;;;;;;;11.60;2.77;;;2.00;99.90;;;;;;5037382;28;20428;-73
2024/01/15 00:12:48;;;;;;;13.87;3.40;;;1.90;99.90;;;;;;5033821;28;20047;-73
2024/01/15 00:15:14;;;;;;;10.70;2.53;;;2.00;99.90;;;;;;5041876;28;20045;-72
2024/01/15 00:17:40;;;;;;;14.17;2.63;;;2.00;99.90;;;;;;5033089;28;20055;-72
2024/01/15 00:20:07;;;;;;;12.03;3.03;;;2.00;99.90;;;;;;5038897;28;20123;-72
2024/01/15 00:22:32;;;;;;;17.57;3.17;;;2.00;99.90;;;;;;5015471;28;20041;-73
2024/01/15 00:24:58;;;;;;;14.07;2.90;;;2.00;99.90;;;;;;5032790;28;20142;-73
2024/01/15 00:27:24;;;;;;;11.80;3.10;;;2.10;99.90;;;;;;5015202;28;20041;-73
2024/01/15 00:29:51;;;;;;;11.20;2.63;;;2.20;99.90;;;;;;5035130;28;20124;-72
2024/01/15 00:32:17;;;;;;;9.10;2.67;;;2.30;99.90;;;;;;5034519;28;20128;-72
2024/01/15 00:34:43;;;;;;;13.93;2.83;;;2.40;99.90;;;;;;5035189;28;20566;-72
2024/01/15 00:37:08;;;;;;;10.50;2.70;;;2.30;99.90;;;;;;5033793;28;20037;-72
2024/01/15 00:39:34;;;;;;;8.23;2.10;;;2.30;99.90;;;;;;5034216;28;20118;-74
2024/01/15 00:42:00;;;;;;;11.90;2.70;;;2.30;99.90;;;;;;5034207;28;20096;-73
2024/01/15 00:44:25;;;;;;;14.60;2.57;;;2.20;99.90;;;;;;5035204;28;20065;-73
2024/01/15 00:46:51;;;;;;;11.43;2.70;;;2.10;99.90;;;;;;5033605;28;20072;-73
2024/01/15 00:49:17;;;;;;;13.20;2.70;;;2.00;99.90;;;;;;5034674;28;20069;-73
2024/01/15 00:51:42;;;;;;;9.87;2.90;;;2.10;99.90;;;;;;5033858;28;20095;-73
2024/01/15 00:54:08;;;;;;;11.47;2.60;;;2.10;99.90;;;;;;5035260;28;20536;-74
2024/01/15 00:56:34;;;;;;;13.73;3.10;;;2.10;99.90;;;;;;5033913;28;20058;-73
2024/01/15 00:59:00;;;;;;;11.83;2.97;;;2.00;99.90;;;;;;5032432;28;20095;-73
2024/01/15 01:01:26;;;;;;;13.93;2.50;;;2.00;99.90;;;;;;5033713;28;20057;-73
2024/01/15 01:03:51;;;;;;;16.40;3.00;;;2.00;99.90;;;;;;5034106;28;20049;-73
2024/01/15 01:06:17;;;;;;;16.73;3.27;;;1.90;99.90;;;;;;5033846;28;20076;-73
2024/01/15 01:08:43;;;;;;;12.67;2.70;;;1.90;99.90;;;;;;5033132;28;20049;-73
2024/01/15 01:11:13;;;;;;;9.33;2.67;;;1.90;99.90;;;;;;5034661;28;20548;-73
2024/01/15 01:13:39;;;;;;;15.20;3.47;;;1.90;99.90;;;;;;5032833;28;20041;-73
2024/01/15 01:16:05;;;;;;;15.10;3.20;;;1.90;99.90;;;;;;5034076;28;20037;-73
2024/01/15 01:18:30;;;;;;;13.60;2.70;;;1.80;99.90;;;;;;5035585;28;20124;-73
2024/01/15 01:20:56;;;;;;;14.30;2.90;;;1.80;99.90;;;;;;5034965;28;20492;-74
2024/01/15 01:23:21;;;;;;;10.53;2.63;;;1.70;99.90;;;;;;5033724;28;20041;-74
2024/01/15 01:25:47;;;;;;;10.93;2.87;;;1.70;99.90;;;;;;5034394;28;20048;-74
2024/01/15 01:28:13;;;;;;;17.57;3.17;;;1.70;99.90;;;;;;5018588;28;20396;-74
2024/01/15 01:30:39;;;;;;;13.63;3.03;;;1.60;99.90;;;;;;5035263;28;20100;-74
2024/01/15 01:33:05;;;;;;;9.40;2.43;;;1.60;99.90;;;;;;5036309;28;20501;-74
2024/01/15 01:35:30;;;;;;;14.67;2.97;;;1.60;99.90;;;;;;5029588;28;20059;-75
2024/01/15 01:37:56;;;;;;;14.47;2.87;;;1.60;99.90;;;;;;5035107;28;20038;-74
2024/01/15 01:40:22;;;;;;;14.87;3.10;;;1.60;99.90;;;;;;5034417;28;20060;-73
2024/01/15 01:42:48;;;;;;;16.67;3.20;;;1.50;99.90;;;;;;5034431;28;20049;-73
2024/01/15 01:45:14;;;;;;;15.33;3.07;;;1.60;99.90;;;;;;5033703;28;20080;-73
2024/01/15 01:47:40;;;;;;;7.73;2.37;;;1.60;99.90;;;;;;5030617;28;20124;-74
2024/01/15 01:50:06;;;;;;;20.27;3.17;;;1.60;99.90;;;;;;5034410;28;20594;-73
2024/01/15 01:52:32;;;;;;;10.67;2.90;;;1.60;99.90;;;;;;5032912;28;20442;-73
2024/01/15 01:55:01;;;;;;;13.20;2.80;;;1.60;99.90;;;;;;5034743;28;20045;-73
2024/01/15 01:57:26;;;;;;;12.33;2.87;;;1.70;99.90;;;;;;5034746;28;20037;-73
2024/01/15 01:59:53;;;;;;;10.67;2.30;;;1.80;99.90;;;;;;5034461;28;20160;-73
2024/01/15 02:02:19;;;;;;;13.57;2.80;;;1.70;99.90;;;;;;5015754;28;20049;-74
2024/01/15 02:04:47;;;;;;;13.43;2.67;;;1.80;99.90;;;;;;5034166;28;20041;-74
2024/01/15 02:07:13;;;;;;;14.27;2.97;;;1.80;99.90;;;;;;5033249;28;20096;-73
2024/01/15 02:09:38;;;;;;;13.57;2.80;;;1.80;99.90;;;;;;5034971;28;20052;-73
2024/01/15 02:12:05;;;;;;;10.17;2.50;;;1.80;99.90;;;;;;5032129;28;20049;-73
2024/01/15 02:14:30;;;;;;;11.33;2.30;;;1.80;99.90;;;;;;5033713;28;20301;-73
2024/01/15 02:16:56;;;;;;;11.03;2.00;;;1.70;99.90;;;;;;5033088;28;20052;-74
2024/01/15 02:19:22;;;;;;;13.80;2.33;;;1.80;99.90;;;;;;5016977;28;20053;-73
2024/01/15 02:21:47;;;;;;;7.23;1.50;;;1.80;99.90;;;;;;5032642;28;20455;-73
2024/01/15 02:24:13;;;;;;;6.17;1.70;;;1.80;99.90;;;;;;5034838;28;20148;-73
2024/01/15 02:26:39;;;;;;;7.60;1.83;;;1.80;99.90;;;;;;5035496;28;20048;-73
2024/01/15 02:29:08;;;;;;;6.53;1.47;;;1.80;99.90;;;;;;5017831;28;20056;-73
2024/01/15 02:31:36;;;;;;;6.83;1.70;;;1.80;99.90;;;;;;5032740;28;20108;-73
2024/01/15 02:34:01;;;;;;;5.87;1.47;;;1.80;99.90;;;;;;5032725;28;20051;-72
2024/01/15 02:36:27;;;;;;;5.60;1.60;;;1.80;99.90;;;;;;5035768;28;20120;-73
2024/01/15 02:38:53;;;;;;;6.13;1.47;;;1.90;99.90;;;;;;5032065;28;20099;-72
2024/01/15 02:41:18;;;;;;;7.50;1.80;;;1.90;99.90;;;;;;5032649;28;20113;-73
2024/01/15 02:43:44;;;;;;;7.47;1.90;;;1.90;99.90;;;;;;5031105;28;20678;-73
2024/01/15 02:46:10;;;;;;;11.67;2.10;;;1.90;99.90;;;;;;5034052;28;20041;-73
2024/01/15 02:48:35;;;;;;;8.80;2.30;;;1.90;99.90;;;;;;5035248;28;20075;-73
2024/01/15 02:51:02;;;;;;;12.03;2.20;;;1.80;99.90;;;;;;5033254;28;20129;-73
2024/01/15 02:53:28;;;;;;;7.03;1.90;;;1.80;99.90;;;;;;5030590;28;20177;-73
2024/01/15 02:55:53;;;;;;;10.47;2.10;;;1.80;99.90;;;;;;5031617;28;20053;-73
2024/01/15 02:58:19;;;;;;;10.73;2.13;;;1.90;99.90;;;;;;5033961;28;20389;-73
2024/01/15 03:00:46;;;;;;;11.27;2.37;;;1.90;99.90;;;;;;5031020;28;20029;-73
2024/01/15 03:03:12;;;;;;;12.40;2.80;;;2.00;99.90;;;;;;5033126;28;20045;-73
2024/01/15 03:05:37;;;;;;;10.30;2.30;;;2.00;99.90;;;;;;5032274;28;20052;-73
2024/01/15 03:08:03;;;;;;;10.53;3.07;;;2.00;99.90;;;;;;5032924;28;20042;-74
2024/01/15 03:10:29;;;;;;;11.20;3.33;;;2.00;99.90;;;;;;5030803;28;20476;-73
2024/01/15 03:12:55;;;;;;;16.77;3.17;;;2.00;99.90;;;;;;5033295;28;20046;-73
2024/01/15 03:15:20;;;;;;;13.83;2.73;;;2.00;99.90;;;;;;5032475;28;20571;-73
2024/01/15 03:17:46;;;;;;;13.07;2.40;;;1.90;99.90;;;;;;5031621;28;20045;-72
2024/01/15 03:20:12;;;;;;;13.43;3.17;;;1.90;99.90;;;;;;5017001;28;20145;-73
2024/01/15 03:22:38;;;;;;;13.57;2.80;;;1.90;99.90;;;;;;5032774;28;20040;-73
2024/01/15 03:25:04;;;;;;;9.23;3.10;;;2.00;99.90;;;;;;5033268;28;20057;-73
2024/01/15 03:27:30;;;;;;;10.10;2.50;;;2.00;99.90;;;;;;5032489;28;20475;-73
2024/01/15 03:29:56;;;;;;;11.07;3.00;;;2.00;99.90;;;;;;5016855;28;20057;-73
2024/01/15 03:32:21;;;;;;;13.57;3.23;;;2.00;99.90;;;;;;5033739;28;20128;-73
2024/01/15 03:34:48;;;;;;;12.47;2.60;;;2.00;99.90;;;;;;5034377;28;20045;-73
2024/01/15 03:37:13;;;;;;;10.63;2.37;;;2.00;99.90;;;;;;5037549;28;20044;-72
2024/01/15 03:39:39;;;;;;;11.70;2.70;;;2.00;99.90;;;;;;5034659;28;20057;-73
2024/01/15 03:42:06;;;;;;;18.47;3.40;;;2.00;99.90;;;;;;5036066;28;20049;-73
2024/01/15 03:44:31;;;;;;;12.13;2.87;;;2.00;99.90;;;;;;5035836;28;20121;-73
2024/01/15 03:46:58;;;;;;;14.67;3.30;;;2.10;99.90;;;;;;5033075;28;20447;-73
2024/01/15 03:49:23;;;;;;;15.83;3.87;;;2.10;99.90;;;;;;5036824;28;20045;-73
2024/01/15 03:51:49;;;;;;;13.40;3.23;;;2.10;99.90;;;;;;5033637;28;20072;-73
2024/01/15 03:54:15;;;;;;;21.33;3.40;;;2.10;99.90;;;;;;5036406;28;20045;-73
2024/01/15 03:56:40;;;;;;;14.77;3.20;;;2.10;99.90;;;;;;5033976;28;20561;-73
2024/01/15 03:59:06;;;;;;;12.63;3.40;;;2.10;99.90;;;;;;5035903;28;20045;-74
2024/01/15 04:01:32;;;;;;;12.00;2.90;;;2.00;99.90;;;;;;5034989;28;20050;-74
2024/01/15 04:03:57;;;;;;;15.83;3.47;;;2.00;99.90;;;;;;5018952;28;20053;-73
2024/01/15 04:06:23;;;;;;;12.23;2.67;;;2.00;99.90;;;;;;5037554;28;20072;-73
2024/01/15 04:08:49;;;;;;;12.57;2.90;;;2.00;99.90;;;;;;5036757;28;20050;-73
2024/01/15 04:11:14;;;;;;;14.93;3.20;;;2.10;99.90;;;;;;5037204;28;20064;-74
2024/01/15 04:13:40;;;;;;;12.80;2.70;;;2.00;99.90;;;;;;5037041;28;20049;-73
2024/01/15 04:16:06;;;;;;;11.87;2.70;;;2.00;99.90;;;;;;5035852;28;20495;-75
2024/01/15 04:18:31;;;;;;;10.73;2.90;;;2.10;99.90;;;;;;5035490;28;20044;-73
2024/01/15 04:20:57;;;;;;;13.23;3.57;;;2.10;99.90;;;;;;5034007;28;20084;-73
2024/01/15 04:23:23;;;;;;;13.40;2.60;;;2.10;99.90;;;;;;5035055;28;20045;-74
2024/01/15 04:25:48;;;;;;;15.50;2.83;;;2.10;99.90;;;;;;5035083;28;20611;-74
2024/01/15 04:28:14;;;;;;;12.47;2.73;;;2.20;99.90;;;;;;5037528;28;20034;-73
2024/01/15 04:30:40;;;;;;;7.57;2.17;;;2.20;99.90;;;;;;5036376;28;20056;-74
2024/01/15 04:33:05;;;;;;;13.17;2.53;;;2.20;99.90;;;;;;5035325;28;20047;-73
2024/01/15 04:35:31;;;;;;;14.77;2.93;;;2.20;99.90;;;;;;5033377;28;20069;-73
2024/01/15 04:37:57;;;;;;;12.30;2.77;;;2.20;99.90;;;;;;5035177;28;20041;-73
2024/01/15 04:40:22;;;;;;;13.63;2.50;;;2.20;99.90;;;;;;5034741;28;20113;-73
2024/01/15 04:42:48;;;;;;;10.30;2.60;;;2.20;99.90;;;;;;5032545;28;20045;-73
2024/01/15 04:45:14;;;;;;;12.63;2.50;;;2.20;99.90;;;;;;5020960;28;20073;-73
2024/01/15 04:47:40;;;;;;;16.37;3.00;;;2.20;99.90;;;;;;5033062;28;20043;-73
2024/01/15 04:50:06;;;;;;;13.83;2.57;;;2.10;99.90;;;;;;5036856;28;20052;-73
2024/01/15 04:52:32;;;;;;;11.30;2.23;;;2.10;99.90;;;;;;5034593;28;20053;-74
2024/01/15 04:54:58;;;;;;;9.73;2.17;;;2.00;99.90;;;;;;5034602;28;20049;-73
2024/01/15 04:57:23;;;;;;;10.03;3.23;;;2.00;99.90;;;;;;5036881;28;20045;-73
2024/01/15 04:59:49;;;;;;;8.27;2.03;;;1.90;99.90;;;;;;5035838;28;20676;-74
2024/01/15 05:02:15;;;;;;;7.60;2.10;;;1.80;99.90;;;;;;5034690;28;20124;-74
2024/01/15 05:04:41;;;;;;;6.33;2.00;;;1.70;99.90;;;;;;5031604;28;20091;-74
2024/01/15 05:07:06;;;;;;;10.67;1.90;;;1.70;99.90;;;;;;5035379;28;20041;-73
2024/01/15 05:09:32;;;;;;;6.40;1.80;;;1.60;99.90;;;;;;5033525;28;20096;-73
2024/01/15 05:11:58;;;;;;;6.23;1.60;;;1.60;99.90;;;;;;5033186;28;20477;-74
2024/01/15 05:14:23;;;;;;;5.67;1.87;;;1.60;99.90;;;;;;5033796;28;20499;-73
2024/01/15 05:16:50;;;;;;;5.97;2.17;;;1.50;99.90;;;;;;5033499;28;20041;-74
2024/01/15 05:19:16;;;;;;;6.80;1.60;;;1.50;99.90;;;;;;5017707;28;20052;-74
2024/01/15 05:21:41;;;;;;;8.67;1.93;;;1.40;99.90;;;;;;5035077;28;20043;-74
2024/01/15 05:24:08;;;;;;;7.30;1.77;;;1.40;99.90;;;;;;5018951;28;20045;-73
2024/01/15 05:26:33;;;;;;;6.63;1.50;;;1.40;99.90;;;;;;5035269;28;20077;-72
2024/01/15 05:28:59;;;;;;;7.33;1.50;;;1.40;99.90;;;;;;5035110;28;20046;-72
2024/01/15 05:31:25;;;;;;;7.67;1.60;;;1.40;99.90;;;;;;5036650;28;20088;-73
2024/01/15 05:33:51;;;;;;;6.93;2.23;;;1.40;99.90;;;;;;5035890;28;20241;-73
2024/01/15 05:36:16;;;;;;;8.13;1.57;;;1.40;99.90;;;;;;5034110;28;20048;-73
2024/01/15 05:38:42;;;;;;;7.57;1.60;;;1.40;99.90;;;;;;5032702;28;20129;-74
2024/01/15 05:41:08;;;;;;;7.53;1.70;;;1.40;99.90;;;;;;5035526;28;20051;-74
2024/01/15 05:43:33;;;;;;;6.67;1.77;;;1.40;99.90;;;;;;5033858;28;20045;-73
2024/01/15 05:45:59;;;;;;;7.33;1.80;;;1.40;99.90;;;;;;5033851;28;20084;-74
2024/01/15 05:48:25;;;;;;;8.37;2.10;;;1.50;99.90;;;;;;5033473;28;20136;-73
2024/01/15 05:50:50;;;;;;;9.00;2.20;;;1.50;99.90;;;;;;5034001;28;20076;-74
2024/01/15 05:53:16;;;;;;;7.93;2.30;;;1.50;99.90;;;;;;5033121;28;20144;-73
2024/01/15 05:55:42;;;;;;;14.40;2.40;;;1.50;99.90;;;;;;5033424;28;20099;-73
2024/01/15 05:58:07;;;;;;;10.33;2.03;;;1.60;99.90;;;;;;5035905;28;20129;-73
2024/01/15 06:00:35;;;;;;;7.40;1.90;;;1.60;99.90;;;;;;5033041;28;20048;-73
2024/01/15 06:03:00;;;;;;;9.33;2.03;;;1.60;99.90;;;;;;5034503;28;20598;-73
2024/01/15 06:05:26;;;;;;;9.57;2.40;;;1.60;99.90;;;;;;5031650;28;20053;-74
2024/01/15 06:07:52;;;;;;;7.00;2.07;;;1.60;99.90;;;;;;5036778;28;20030;-74
2024/01/15 06:10:17;;;;;;;10.93;2.00;;;1.60;99.90;;;;;;5035171;28;20084;-74
2024/01/15 06:12:44;;;;;;;8.23;2.00;;;1.60;99.90;;;;;;5013243;28;20105;-73
2024/01/15 06:15:09;;;;;;;6.93;1.90;;;1.50;99.90;;;;;;5031536;28;20485;-74
2024/01/15 06:17:35;;;;;;;12.33;2.67;;;1.50;99.90;;;;;;5032023;28;20109;-75
2024/01/15 06:20:02;;;;;;;6.73;1.80;;;1.50;99.90;;;;;;5032987;28;20548;-73
2024/01/15 06:22:27;;;;;;;8.33;1.83;;;1.50;99.90;;;;;;5032505;28;20041;-74
2024/01/15 06:24:53;;;;;;;7.60;1.80;;;1.50;99.90;;;;;;5034544;28;20052;-75
2024/01/15 06:27:19;;;;;;;7.47;2.10;;;1.50;99.90;;;;;;5031889;28;20109;-73
2024/01/15 06:29:48;;;;;;;8.30;2.20;;;1.50;99.90;;;;;;5033641;28;20034;-75
2024/01/15 06:32:14;;;;;;;7.33;2.10;;;1.50;99.90;;;;;;5033844;28;20041;-74
2024/01/15 06:34:39;;;;;;;9.93;2.50;;;1.50;99.90;;;;;;5033448;28;20037;-75
2024/01/15 06:37:05;;;;;;;9.27;2.20;;;1.50;99.90;;;;;;5031876;28;20071;-75
2024/01/15 06:39:31;;;;;;;11.57;2.47;;;1.50;99.90;;;;;;5030519;28;20037;-75
2024/01/15 06:41:57;;;;;;;10.53;2.80;;;1.50;99.90;;;;;;5029397;28;20096;-74
2024/01/15 06:44:22;;;;;;;10.13;2.20;;;1.50;99.90;;;;;;5013954;28;20084;-75
2024/01/15 06:46:48;;;;;;;9.00;3.47;;;1.50;99.90;;;;;;5033209;28;20064;-75
2024/01/15 06:49:14;;;;;;;11.20;2.30;;;1.50;99.90;;;;;;5035398;28;20528;-75
2024/01/15 06:51:40;;;;;;;10.07;2.20;;;1.50;99.90;;;;;;5035953;28;20056;-75
2024/01/15 06:54:05;;;;;;;12.37;2.63;;;1.50;99.90;;;;;;5036064;28;20049;-74
2024/01/15 06:56:32;;;;;;;11.57;2.40;;;1.50;99.90;;;;;;5032928;28;20079;-75
2024/01/15 06:58:58;;;;;;;9.80;2.40;;;1.50;99.90;;;;;;5034875;28;20124;-75
2024/01/15 07:01:23;;;;;;;15.83;2.47;;;1.40;99.90;;;;;;5033049;28;20045;-75
2024/01/15 07:03:49;;;;;;;9.10;2.53;;;1.50;99.90;;;;;;5029547;28;20043;-75
2024/01/15 07:06:15;;;;;;;10.73;3.00;;;1.40;99.90;;;;;;5032371;28;20052;-74
2024/01/15 07:08:42;;;;;;;16.00;2.80;;;1.40;99.90;;;;;;5035335;28;20525;-83
2024/01/15 07:11:08;;;;;;;12.77;2.90;;;1.40;99.90;;;;;;5020845;28;20045;-73
2024/01/15 07:13:34;;;;;;;10.17;2.83;;;1.50;99.90;;;;;;5035537;28;20136;-73
2024/01/15 07:15:59;;;;;;;13.60;2.83;;;1.50;99.90;;;;;;5037075;28;20049;-73
2024/01/15 07:18:25;;;;;;;15.57;3.37;;;1.50;99.90;;;;;;5036460;28;20041;-72
2024/01/15 07:20:51;;;;;;;14.10;2.90;;;1.50;99.90;;;;;;5039415;28;20072;-73
2024/01/15 07:23:17;;;;;;;12.27;2.90;;;1.50;99.90;;;;;;5036521;28;20049;-72
2024/01/15 07:25:43;;;;;;;11.50;2.83;;;1.50;99.90;;;;;;5036990;28;20040;-73
2024/01/15 07:28:09;;;;;;;11.43;2.53;;;1.50;99.90;;;;;;5039494;28;20076;-73
2024/01/15 07:30:35;;;;;;;13.50;3.13;;;1.50;99.90;;;;;;5019547;28;20033;-74
2024/01/15 07:33:01;;;;;;;13.90;3.00;;;1.50;99.90;;;;;;5034930;28;20045;-72
2024/01/15 07:35:26;;;;;;;10.37;2.60;;;1.50;99.90;;;;;;5025300;28;20103;-75
2024/01/15 07:37:52;;;;;;;12.30;2.80;;;1.50;99.90;;;;;;5025767;28;20057;-80
2024/01/15 07:40:18;;;;;;;14.43;3.50;;;1.50;99.90;;;;;;4990121;28;20037;-74
2024/01/15 07:42:44;;;;;;;12.33;2.63;;;1.40;99.90;;;;;;5019591;28;20052;-73
2024/01/15 07:45:10;;;;;;;11.60;2.70;;;1.40;99.90;;;;;;5021213;28;20048;-73
2024/01/15 07:47:36;;;;;;;13.90;2.70;;;1.40;99.90;;;;;;5019630;28;20053;-73
2024/01/15 07:50:02;;;;;;;11.30;2.83;;;1.40;99.90;;;;;;5021988;28;20056;-73
2024/01/15 07:52:28;;;;;;;18.33;3.27;;;1.40;99.90;;;;;;5018099;28;20195;-72
2024/01/15 07:54:54;;;;;;;13.07;3.00;;;1.30;99.90;;;;;;5019423;28;20048;-72
2024/01/15 07:57:20;;;;;;;15.47;2.80;;;1.30;99.90;;;;;;5020573;28;20449;-73
2024/01/15 07:59:46;;;;;;;9.63;2.53;;;1.30;99.90;;;;;;5020120;28;20523;-73
2024/01/15 08:02:11;;;;;;;13.57;2.50;;;1.30;99.90;;;;;;5020992;28;20063;-73
2024/01/15 08:04:38;;;;;;;15.97;3.10;;;1.30;99.90;;;;;;5018268;28;20123;-73
2024/01/15 08:07:05;;;;;;;15.67;3.07;;;1.30;99.90;;;;;;5020256;28;20053;-73
2024/01/15 08:09:31;;;;;;;11.73;3.03;;;1.40;99.90;;;;;;5019931;28;20057;-75
2024/01/15 08:11:57;;;;;;;11.00;2.70;;;1.40;99.90;;;;;;5020359;28;20113;-74
2024/01/15 08:14:22;;;;;;;11.20;2.80;;;1.40;99.90;;;;;;5019602;28;20500;-75
2024/01/15 08:16:48;;;;;;;14.57;2.63;;;1.50;99.90;;;;;;5020386;28;20045;-74
2024/01/15 08:19:14;;;;;;;9.93;2.50;;;1.60;99.90;;;;;;5022165;28;20044;-74
2024/01/15 08:21:40;;;;;;;15.40;2.70;;;1.60;99.90;;;;;;5020446;28;20157;-74
2024/01/15 08:24:06;;;;;;;10.80;2.53;;;1.70;99.90;;;;;;5020445;28;20053;-74
2024/01/15 08:26:32;;;;;;;14.50;2.57;;;1.70;99.90;;;;;;5020214;28;20433;-74
2024/01/15 08:28:58;;;;;;;11.87;2.40;;;1.70;99.90;;;;;;5020371;28;20150;-74
2024/01/15 08:31:24;;;;;;;11.63;3.07;;;1.70;99.90;;;;;;5017996;28;20172;-74
2024/01/15 08:33:50;;;;;;;11.07;3.00;;;1.70;99.90;;;;;;5017805;28;20037;-74
2024/01/15 08:36:16;;;;;;;10.93;2.70;;;1.70;99.90;;;;;;5020605;28;20111;-74
2024/01/15 08:38:42;;;;;;;12.17;3.37;;;1.60;99.90;;;;;;5018022;28;20385;-74
2024/01/15 08:41:09;;;;;;;12.60;2.87;;;1.60;99.90;;;;;;5021270;28;20052;-74
2024/01/15 08:43:35;;;;;;;9.87;2.53;;;1.60;99.90;;;;;;5018928;28;20115;-74
2024/01/15 08:46:01;;;;;;;13.80;2.73;;;1.60;99.90;;;;;;5020095;28;20503;-74
2024/01/15 08:48:27;;;;;;;14.87;3.10;;;1.60;99.90;;;;;;5020727;28;20041;-75
2024/01/15 08:50:54;;;;;;;10.13;2.83;;;1.60;99.90;;;;;;5018647;28;20278;-75
2024/01/15 08:53:20;;;;;;;11.90;3.30;;;1.60;99.90;;;;;;5019148;28;20046;-75
2024/01/15 08:55:46;;;;;;;12.77;3.27;;;1.70;99.90;;;;;;5018992;28;20076;-75
2024/01/15 08:58:12;;;;;;;13.10;3.27;;;1.70;99.90;;;;;;5019258;28;20053;-75
2024/01/15 09:00:37;;;;;;;14.40;3.20;;;1.80;99.90;;;;;;5018761;28;20053;-75
2024/01/15 09:03:03;;;;;;;12.67;2.83;;;1.80;99.90;;;;;;5020188;28;20607;-76
2024/01/15 09:05:29;;;;;;;15.17;3.00;;;1.90;99.90;;;;;;5018700;28;20045;-75
2024/01/15 09:07:55;;;;;;;12.70;2.83;;;2.00;99.90;;;;;;5019319;28;20237;-76
2024/01/15 09:10:21;;;;;;;11.90;3.03;;;2.10;99.90;;;;;;5018410;28;20087;-76
2024/01/15 09:12:48;;;;;;;7.60;2.60;;;2.20;99.90;;;;;;5018437;28;20055;-76
2024/01/15 09:15:15;;;;;;;15.10;3.63;;;2.30;99.90;;;;;;5019179;28;20499;-76
2024/01/15 09:17:40;;;;;;;13.07;2.77;;;2.30;99.90;;;;;;5019696;28;20045;-76
2024/01/15 09:20:07;;;;;;;11.77;3.10;;;2.40;99.90;;;;;;5018851;28;20049;-76
2024/01/15 09:22:33;;;;;;;10.40;2.80;;;2.50;99.90;;;;;;5019203;28;20668;-76
2024/01/15 09:24:58;;;;;;;13.00;3.23;;;2.60;99.90;;;;;;5018069;28;20060;-76
2024/01/15 09:27:27;;;;;;;11.97;2.77;;;2.60;99.90;;;;;;5021071;28;20060;-76
2024/01/15 09:29:53;;;;;;;4.67;1.90;;;2.60;99.90;;;;;;5017631;28;20053;-74
2024/01/15 09:32:19;;;;;;;7.77;2.40;;;2.60;99.90;;;;;;5020406;28;20040;-74
2024/01/15 09:34:47;;;;;;;11.17;2.43;;;2.50;99.90;;;;;;5018881;28;20084;-74
2024/01/15 09:37:16;;;;;;;9.23;2.37;;;2.40;99.90;;;;;;5018199;28;20046;-74
2024/01/15 09:39:42;;;;;;;6.07;1.70;;;2.30;99.90;;;;;;5016604;28;20041;-74
2024/01/15 09:42:08;;;;;;;8.67;2.00;;;2.30;99.90;;;;;;5019417;28;20397;-74
2024/01/15 09:44:34;;;;;;;9.27;2.33;;;2.30;99.90;;;;;;5020502;28;20423;-74
2024/01/15 09:47:01;;;;;;;11.10;2.20;;;2.30;99.90;;;;;;5018088;28;20151;-74
2024/01/15 09:49:27;;;;;;;7.37;2.20;;;2.30;99.90;;;;;;5002805;28;20071;-74
2024/01/15 09:51:54;;;;;;;10.13;2.40;;;2.30;99.90;;;;;;5018318;28;20030;-74
2024/01/15 09:54:21;;;;;;;10.57;2.40;;;2.40;99.90;;;;;;5019712;28;20057;-73
2024/01/15 09:56:47;;;;;;;7.90;2.30;;;2.40;99.90;;;;;;5017523;28;20053;-74
2024/01/15 09:59:16;;;;;;;11.10;2.63;;;2.40;99.90;;;;;;5018316;28;20037;-74
2024/01/15 10:01:44;;;;;;;9.17;2.50;;;2.50;99.90;;;;;;5019214;28;20049;-74
2024/01/15 10:04:12;;;;;;;13.10;2.73;;;2.60;99.90;;;;;;5016384;28;20091;-75
2024/01/15 10:06:41;;;;;;;10.10;2.10;;;2.70;99.90;;;;;;5019654;28;20068;-75
2024/01/15 10:09:07;;;;;;;8.97;2.83;;;2.70;99.90;;;;;;5016892;28;20124;-74
2024/01/15 10:11:33;;;;;;;10.43;2.87;;;2.70;99.90;;;;;;5019959;28;20053;-75
2024/01/15 10:13:59;;;;;;;12.87;2.73;;;2.60;99.90;;;;;;5017530;28;20045;-75
2024/01/15 10:16:26;;;;;;;7.73;2.67;;;2.60;99.90;;;;;;5018093;28;20088;-74
2024/01/15 10:18:52;;;;;;;9.83;2.43;;;2.50;99.90;;;;;;5019049;28;21136;-75
2024/01/15 10:21:17;;;;;;;15.53;2.83;;;2.40;99.90;;;;;;5017201;28;20627;-75
2024/01/15 10:23:44;;;;;;;15.00;2.70;;;2.40;99.90;;;;;;5019398;28;20049;-75
2024/01/15 10:26:11;;;;;;;13.83;3.53;;;2.40;99.90;;;;;;5017576;28;20128;-75
2024/01/15 10:28:37;;;;;;;9.00;2.67;;;2.40;99.90;;;;;;5020121;28;20056;-75
2024/01/15 10:31:04;;;;;;;9.63;2.80;;;2.40;99.90;;;;;;5015938;28;20053;-74
2024/01/15 10:33:30;;;;;;;12.97;3.07;;;2.40;99.90;;;;;;5018182;28;20056;-74
2024/01/15 10:36:00;;;;;;;11.70;2.60;;;2.50;99.90;;;;;;5017353;28;20041;-76
2024/01/15 10:38:26;;;;;;;10.63;2.67;;;2.50;99.90;;;;;;5017304;28;20068;-76
2024/01/15 10:40:53;;;;;;;8.03;2.13;;;2.60;99.90;;;;;;5017900;28;20057;-76
2024/01/15 10:43:20;;;;;;;12.50;2.70;;;2.70;99.90;;;;;;5017832;28;20038;-76
2024/01/15 10:45:47;;;;;;;10.37;3.00;;;2.70;99.90;;;;;;5018350;28;20094;-76
2024/01/15 10:48:14;;;;;;;9.13;2.67;;;2.70;99.90;;;;;;5018064;28;20390;-75
2024/01/15 10:50:40;;;;;;;8.57;2.23;;;2.90;99.90;;;;;;5018104;28;20045;-75
2024/01/15 10:53:07;;;;;;;11.00;2.63;;;2.90;99.90;;;;;;5016546;28;20049;-77
2024/01/15 10:55:34;;;;;;;10.67;2.70;;;2.90;99.90;;;;;;5016620;28;20559;-77
2024/01/15 10:58:00;;;;;;;12.83;2.37;;;2.80;99.90;;;;;;5018787;28;20065;-77
2024/01/15 11:00:26;;;;;;;8.90;2.10;;;2.80;99.90;;;;;;5016191;28;20054;-77
2024/01/15 11:02:55;;;;;;;9.10;2.33;;;2.70;99.90;;;;;;5017891;28;20049;-76
2024/01/15 11:05:22;;;;;;;6.53;2.00;;;2.60;99.90;;;;;;5016469;28;20096;-77
2024/01/15 11:07:54;;;;;;;8.03;2.23;;;2.60;99.90;;;;;;5017903;28;20571;-77
2024/01/15 11:10:45;;;;;;;9.23;2.13;;;2.60;99.90;;;;;;5016284;28;20045;-78
2024/01/15 11:13:20;;;;;;;9.30;1.93;;;2.60;99.90;;;;;;5017806;28;20049;-77
2024/01/15 11:16:00;;;;;;;6.10;2.17;;;2.60;99.90;;;;;;5018644;28;20045;-77
2024/01/15 11:18:28;;;;;;;7.43;2.00;;;2.70;99.90;;;;;;5018119;28;20045;-78
2024/01/15 11:21:13;;;;;;;6.93;1.70;;;2.60;99.90;;;;;;5018049;28;20045;-77
2024/01/15 11:23:49;;;;;;;4.40;1.33;;;2.40;99.90;;;;;;5017535;28;20513;-76
2024/01/15 11:26:31;;;;;;;6.27;1.40;;;2.30;99.90;;;;;;5017240;28;20065;-76
2024/01/15 11:28:59;;;;;;;5.20;1.40;;;2.30;99.90;;;;;;5016970;28;20095;-77
2024/01/15 11:31:40;;;;;;;4.53;1.60;;;2.30;99.90;;;;;;5017290;28;20050;-76
2024/01/15 11:34:07;;;;;;;7.63;1.50;;;2.30;99.90;;;;;;5014694;28;20056;-76
2024/01/15 11:36:45;;;;;;;7.80;1.50;;;2.40;99.90;;;;;;5016623;28;20528;-77
2024/01/15 11:39:35;;;;;;;7.60;1.60;;;2.40;99.90;;;;;;5014617;28;20745;-77
2024/01/15 11:42:03;;;;;;;5.40;1.37;;;2.50;99.90;;;;;;5014800;28;20529;-78
2024/01/15 11:44:29;;;;;;;6.23;1.70;;;2.40;99.90;;;;;;5017351;28;20065;-78
2024/01/15 11:47:02;;;;;;;6.00;1.33;;;2.30;99.90;;;;;;4999269;28;20061;-77
2024/01/15 11:49:46;;;;;;;3.77;0.90;;;2.40;99.90;;;;;;5017966;28;20037;-77
2024/01/15 11:52:16;;;;;;;5.57;1.00;;;2.40;99.90;;;;;;5016030;28;20049;-78
2024/01/15 11:54:49;;;;;;;2.47;0.83;;;2.40;99.90;;;;;;5021825;28;20049;-74
2024/01/15 11:57:24;;;;;;;1.50;0.80;;;2.40;99.90;;;;;;5001694;28;20053;-75
2024/01/15 11:59:49;;;;;;;3.80;0.97;;;2.40;99.90;;;;;;5020562;28;20076;-77
2024/01/15 12:02:15;;;;;;;2.77;0.77;;;2.40;99.90;;;;;;5018686;28;20080;-77
2024/01/15 12:04:41;;;;;;;3.57;1.27;;;2.40;99.90;;;;;;5018517;28;20049;-77
2024/01/15 12:07:06;;;;;;;3.07;1.63;;;2.50;99.90;;;;;;5020977;28;20057;-78
2024/01/15 12:09:32;;;;;;;1.63;0.70;;;2.50;99.90;;;;;;5019191;28;20052;-76
2024/01/15 12:12:06;;;;;;;2.13;0.90;;;2.50;99.90;;;;;;5018948;28;20060;-77
2024/01/15 12:14:34;;;;;;;3.10;0.90;;;2.50;99.90;;;;;;5021266;28;21801;-77
2024/01/15 12:17:00;;;;;;;2.30;0.80;;;2.50;99.90;;;;;;5018967;28;20382;-77
2024/01/15 12:19:26;;;;;;;2.17;0.80;;;2.50;99.90;;;;;;5024111;28;20617;-77
2024/01/15 12:21:52;;;;;;;1.67;0.80;;;2.50;99.90;;;;;;5022859;28;20053;-77
2024/01/15 12:24:18;;;;;;;3.20;0.80;;;2.40;99.90;;;;;;5006308;28;20053;-77
2024/01/15 12:26:44;;;;;;;1.60;0.70;;;2.20;99.90;;;;;;5022176;28;20479;-78
2024/01/15 12:29:11;;;;;;;3.63;0.90;;;2.10;99.90;;;;;;5022876;28;20397;-75
2024/01/15 12:31:37;;;;;;;1.87;0.70;;;2.10;99.90;;;;;;5022299;28;20053;-78
2024/01/15 12:34:02;;;;;;;4.00;1.00;;;2.00;99.90;;;;;;5021200;28;20088;-76
2024/01/15 12:36:31;;;;;;;4.90;1.10;;;2.00;99.90;;;;;;5019562;28;20530;-75
2024/01/15 12:39:00;;;;;;;2.23;1.03;;;1.90;99.90;;;;;;5017557;28;20079;-78
2024/01/15 12:41:26;;;;;;;3.77;1.30;;;2.00;99.90;;;;;;5000872;28;20076;-77
2024/01/15 12:43:52;;;;;;;6.03;1.50;;;2.00;99.90;;;;;;5018352;28;20084;-76
2024/01/15 12:46:19;;;;;;;2.23;1.50;;;2.00;99.90;;;;;;5019882;28;20057;-76